sensor_id;sensor_type;location;lat;lon;timestamp;P1;durP1;ratioP1;P2;durP2;ratioP2
20399;SDS011;10359;53.596;22.520;2022-08-19T00:02:03;13.00;;;11.53;;
20399;SDS011;10359;53.596;22.520;2022-08-19T00:04:34;16.77;;;13.87;;
20399;SDS011;10359;53.596;22.520;2022-08-19T00:07:05;10.53;;;9.33;;
20399;SDS011;10359;53.596;22.520;2022-08-19T00:09:35;7.23;;;6.53;;
20399;SDS011;10359;53.596;22.520;2022-08-19T00:12:04;11.23;;;8.33;;
20399;SDS011;10359;53.596;22.520;2022-08-19T00:14:40;14.37;;;9.90;;
20399;SDS011;10359;53.596;22.520;2022-08-19T00:17:09;13.13;;;11.27;;
20399;SDS011;10359;53.596;22.520;2022-08-19T00:19:40;11.90;;;10.27;;
20399;SDS011;10359;53.596;22.520;2022-08-19T00:22:10;14.90;;;11.07;;
20399;SDS011;10359;53.596;22.520;2022-08-19T00:24:41;12.57;;;11.20;;
20399;SDS011;10359;53.596;22.520;2022-08-19T00:27:16;13.53;;;11.73;;
20399;SDS011;10359;53.596;22.520;2022-08-19T00:29:52;10.47;;;9.30;;
20399;SDS011;10359;53.596;22.520;2022-08-19T00:32:21;12.70;;;9.77;;
20399;SDS011;10359;53.596;22.520;2022-08-19T00:34:54;11.03;;;9.87;;
20399;SDS011;10359;53.596;22.520;2022-08-19T00:37:23;11.20;;;10.07;;
20399;SDS011;10359;53.596;22.520;2022-08-19T00:39:53;11.07;;;9.23;;
20399;SDS011;10359;53.596;22.520;2022-08-19T00:42:23;9.87;;;8.53;;
20399;SDS011;10359;53.596;22.520;2022-08-19T00:44:55;11.17;;;8.90;;
20399;SDS011;10359;53.596;22.520;2022-08-19T00:47:24;7.97;;;7.17;;
20399;SDS011;10359;53.596;22.520;2022-08-19T00:49:55;8.50;;;7.20;;
20399;SDS011;10359;53.596;22.520;2022-08-19T00:52:27;8.63;;;7.83;;
20399;SDS011;10359;53.596;22.520;2022-08-19T00:55:00;8.97;;;7.90;;
20399;SDS011;10359;53.596;22.520;2022-08-19T00:57:32;11.47;;;10.33;;
20399;SDS011;10359;53.596;22.520;2022-08-19T01:00:06;11.83;;;8.93;;
20399;SDS011;10359;53.596;22.520;2022-08-19T01:02:40;10.57;;;8.83;;
20399;SDS011;10359;53.596;22.520;2022-08-19T01:05:12;8.13;;;7.10;;
20399;SDS011;10359;53.596;22.520;2022-08-19T01:07:45;8.73;;;7.40;;
20399;SDS011;10359;53.596;22.520;2022-08-19T01:10:17;10.53;;;9.50;;
20399;SDS011;10359;53.596;22.520;2022-08-19T01:12:49;11.97;;;10.67;;
20399;SDS011;10359;53.596;22.520;2022-08-19T01:15:20;11.30;;;10.00;;
20399;SDS011;10359;53.596;22.520;2022-08-19T01:17:52;8.50;;;7.70;;
20399;SDS011;10359;53.596;22.520;2022-08-19T01:20:24;9.10;;;8.10;;
20399;SDS011;10359;53.596;22.520;2022-08-19T01:22:56;13.23;;;10.93;;
20399;SDS011;10359;53.596;22.520;2022-08-19T01:25:27;12.73;;;10.27;;
20399;SDS011;10359;53.596;22.520;2022-08-19T01:27:59;14.30;;;11.53;;
20399;SDS011;10359;53.596;22.520;2022-08-19T01:30:36;16.30;;;11.03;;
20399;SDS011;10359;53.596;22.520;2022-08-19T01:33:09;13.63;;;10.40;;
20399;SDS011;10359;53.596;22.520;2022-08-19T01:35:39;12.13;;;10.90;;
20399;SDS011;10359;53.596;22.520;2022-08-19T01:38:19;13.77;;;11.47;;
20399;SDS011;10359;53.596;22.520;2022-08-19T01:40:49;13.67;;;10.33;;
20399;SDS011;10359;53.596;22.520;2022-08-19T01:43:19;12.53;;;10.30;;
20399;SDS011;10359;53.596;22.520;2022-08-19T01:45:48;12.27;;;9.80;;
20399;SDS011;10359;53.596;22.520;2022-08-19T01:48:17;8.97;;;7.97;;
20399;SDS011;10359;53.596;22.520;2022-08-19T01:50:46;12.17;;;8.43;;
20399;SDS011;10359;53.596;22.520;2022-08-19T01:53:17;12.17;;;9.87;;
20399;SDS011;10359;53.596;22.520;2022-08-19T01:55:48;14.30;;;12.80;;
20399;SDS011;10359;53.596;22.520;2022-08-19T01:58:19;15.63;;;12.73;;
20399;SDS011;10359;53.596;22.520;2022-08-19T02:00:52;11.67;;;9.87;;
20399;SDS011;10359;53.596;22.520;2022-08-19T02:03:21;13.53;;;11.37;;
20399;SDS011;10359;53.596;22.520;2022-08-19T02:05:53;14.23;;;11.47;;
20399;SDS011;10359;53.596;22.520;2022-08-19T02:08:26;13.63;;;12.23;;
20399;SDS011;10359;53.596;22.520;2022-08-19T02:13:25;15.43;;;13.73;;
20399;SDS011;10359;53.596;22.520;2022-08-19T02:15:54;23.17;;;15.90;;
20399;SDS011;10359;53.596;22.520;2022-08-19T02:18:25;14.83;;;12.33;;
20399;SDS011;10359;53.596;22.520;2022-08-19T02:20:54;16.33;;;12.57;;
20399;SDS011;10359;53.596;22.520;2022-08-19T02:23:26;13.07;;;11.67;;
20399;SDS011;10359;53.596;22.520;2022-08-19T02:25:55;15.53;;;12.87;;
20399;SDS011;10359;53.596;22.520;2022-08-19T02:28:24;13.83;;;12.03;;
20399;SDS011;10359;53.596;22.520;2022-08-19T02:30:54;13.57;;;11.77;;
20399;SDS011;10359;53.596;22.520;2022-08-19T02:33:23;13.70;;;12.17;;
20399;SDS011;10359;53.596;22.520;2022-08-19T02:35:52;15.10;;;11.27;;
20399;SDS011;10359;53.596;22.520;2022-08-19T02:38:21;16.43;;;13.53;;
20399;SDS011;10359;53.596;22.520;2022-08-19T02:40:58;16.27;;;13.93;;
20399;SDS011;10359;53.596;22.520;2022-08-19T02:43:29;16.67;;;12.50;;
20399;SDS011;10359;53.596;22.520;2022-08-19T02:46:10;12.80;;;11.50;;
20399;SDS011;10359;53.596;22.520;2022-08-19T02:48:40;20.47;;;14.40;;
20399;SDS011;10359;53.596;22.520;2022-08-19T02:51:15;17.33;;;14.33;;
20399;SDS011;10359;53.596;22.520;2022-08-19T02:53:46;20.00;;;14.47;;
20399;SDS011;10359;53.596;22.520;2022-08-19T02:56:16;16.93;;;14.17;;
20399;SDS011;10359;53.596;22.520;2022-08-19T02:58:46;17.23;;;13.57;;
20399;SDS011;10359;53.596;22.520;2022-08-19T03:01:22;16.20;;;13.13;;
20399;SDS011;10359;53.596;22.520;2022-08-19T03:03:52;13.10;;;11.43;;
20399;SDS011;10359;53.596;22.520;2022-08-19T03:06:22;16.27;;;13.23;;
20399;SDS011;10359;53.596;22.520;2022-08-19T03:08:52;15.80;;;14.00;;
20399;SDS011;10359;53.596;22.520;2022-08-19T03:11:26;14.83;;;13.30;;
20399;SDS011;10359;53.596;22.520;2022-08-19T03:13:57;20.07;;;16.03;;
20399;SDS011;10359;53.596;22.520;2022-08-19T03:16:28;19.83;;;15.43;;
20399;SDS011;10359;53.596;22.520;2022-08-19T03:19:00;17.37;;;14.10;;
20399;SDS011;10359;53.596;22.520;2022-08-19T03:21:30;23.20;;;15.23;;
20399;SDS011;10359;53.596;22.520;2022-08-19T03:24:02;16.27;;;13.77;;
20399;SDS011;10359;53.596;22.520;2022-08-19T03:26:37;13.40;;;12.03;;
20399;SDS011;10359;53.596;22.520;2022-08-19T03:29:08;13.03;;;11.63;;
20399;SDS011;10359;53.596;22.520;2022-08-19T03:31:39;11.83;;;9.23;;
20399;SDS011;10359;53.596;22.520;2022-08-19T03:34:19;12.67;;;11.37;;
20399;SDS011;10359;53.596;22.520;2022-08-19T03:36:49;12.90;;;10.67;;
20399;SDS011;10359;53.596;22.520;2022-08-19T03:39:19;17.37;;;12.47;;
20399;SDS011;10359;53.596;22.520;2022-08-19T03:41:52;13.00;;;11.03;;
20399;SDS011;10359;53.596;22.520;2022-08-19T03:44:43;12.90;;;10.90;;
20399;SDS011;10359;53.596;22.520;2022-08-19T03:47:12;14.27;;;12.07;;
20399;SDS011;10359;53.596;22.520;2022-08-19T03:49:43;12.37;;;11.17;;
20399;SDS011;10359;53.596;22.520;2022-08-19T03:52:13;13.93;;;11.57;;
20399;SDS011;10359;53.596;22.520;2022-08-19T03:54:42;15.93;;;12.23;;
20399;SDS011;10359;53.596;22.520;2022-08-19T03:57:13;12.93;;;11.73;;
20399;SDS011;10359;53.596;22.520;2022-08-19T03:59:42;14.13;;;11.70;;
20399;SDS011;10359;53.596;22.520;2022-08-19T04:02:12;12.67;;;11.37;;
20399;SDS011;10359;53.596;22.520;2022-08-19T04:04:42;11.63;;;10.23;;
20399;SDS011;10359;53.596;22.520;2022-08-19T04:07:13;13.70;;;11.73;;
20399;SDS011;10359;53.596;22.520;2022-08-19T04:09:45;13.43;;;12.13;;
20399;SDS011;10359;53.596;22.520;2022-08-19T04:12:17;12.63;;;11.40;;
20399;SDS011;10359;53.596;22.520;2022-08-19T04:14:47;9.07;;;8.27;;
20399;SDS011;10359;53.596;22.520;2022-08-19T04:17:16;8.73;;;7.60;;
20399;SDS011;10359;53.596;22.520;2022-08-19T04:19:46;8.53;;;7.83;;
20399;SDS011;10359;53.596;22.520;2022-08-19T04:22:16;9.17;;;8.20;;
20399;SDS011;10359;53.596;22.520;2022-08-19T04:24:47;9.00;;;8.10;;
20399;SDS011;10359;53.596;22.520;2022-08-19T04:27:18;7.83;;;7.13;;
20399;SDS011;10359;53.596;22.520;2022-08-19T04:29:48;7.83;;;7.13;;
20399;SDS011;10359;53.596;22.520;2022-08-19T04:32:18;11.30;;;9.37;;
20399;SDS011;10359;53.596;22.520;2022-08-19T04:34:47;10.57;;;9.47;;
20399;SDS011;10359;53.596;22.520;2022-08-19T04:37:36;10.10;;;9.10;;
20399;SDS011;10359;53.596;22.520;2022-08-19T04:40:07;10.70;;;9.33;;
20399;SDS011;10359;53.596;22.520;2022-08-19T04:42:55;11.37;;;10.30;;
20399;SDS011;10359;53.596;22.520;2022-08-19T04:45:25;11.30;;;10.13;;
20399;SDS011;10359;53.596;22.520;2022-08-19T04:48:04;13.53;;;11.67;;
20399;SDS011;10359;53.596;22.520;2022-08-19T04:50:53;14.37;;;10.73;;
20399;SDS011;10359;53.596;22.520;2022-08-19T04:53:25;15.47;;;11.50;;
20399;SDS011;10359;53.596;22.520;2022-08-19T04:56:04;14.90;;;11.13;;
20399;SDS011;10359;53.596;22.520;2022-08-19T04:58:36;15.63;;;11.73;;
20399;SDS011;10359;53.596;22.520;2022-08-19T05:01:09;14.33;;;12.13;;
20399;SDS011;10359;53.596;22.520;2022-08-19T05:03:41;14.57;;;11.23;;
20399;SDS011;10359;53.596;22.520;2022-08-19T05:06:10;16.03;;;12.00;;
20399;SDS011;10359;53.596;22.520;2022-08-19T05:08:42;13.13;;;11.63;;
20399;SDS011;10359;53.596;22.520;2022-08-19T05:11:12;15.67;;;13.27;;
20399;SDS011;10359;53.596;22.520;2022-08-19T05:13:44;16.40;;;12.20;;
20399;SDS011;10359;53.596;22.520;2022-08-19T05:16:15;15.03;;;12.20;;
20399;SDS011;10359;53.596;22.520;2022-08-19T05:18:46;15.93;;;12.03;;
20399;SDS011;10359;53.596;22.520;2022-08-19T05:21:34;13.30;;;11.77;;
20399;SDS011;10359;53.596;22.520;2022-08-19T05:24:21;16.00;;;11.97;;
20399;SDS011;10359;53.596;22.520;2022-08-19T05:26:56;15.33;;;11.80;;
20399;SDS011;10359;53.596;22.520;2022-08-19T05:29:27;19.83;;;11.53;;
20399;SDS011;10359;53.596;22.520;2022-08-19T05:32:02;12.93;;;11.20;;
20399;SDS011;10359;53.596;22.520;2022-08-19T05:34:35;15.63;;;10.87;;
20399;SDS011;10359;53.596;22.520;2022-08-19T05:37:05;11.43;;;10.20;;
20399;SDS011;10359;53.596;22.520;2022-08-19T05:39:36;15.33;;;11.40;;
20399;SDS011;10359;53.596;22.520;2022-08-19T05:42:08;13.53;;;10.43;;
20399;SDS011;10359;53.596;22.520;2022-08-19T05:44:40;11.97;;;10.00;;
20399;SDS011;10359;53.596;22.520;2022-08-19T05:47:11;12.23;;;9.90;;
20399;SDS011;10359;53.596;22.520;2022-08-19T05:49:41;11.70;;;10.37;;
20399;SDS011;10359;53.596;22.520;2022-08-19T05:52:11;14.83;;;10.40;;
20399;SDS011;10359;53.596;22.520;2022-08-19T05:54:44;12.37;;;10.53;;
20399;SDS011;10359;53.596;22.520;2022-08-19T05:57:17;10.90;;;9.83;;
20399;SDS011;10359;53.596;22.520;2022-08-19T05:59:48;13.07;;;10.30;;
20399;SDS011;10359;53.596;22.520;2022-08-19T06:02:23;13.30;;;10.10;;
20399;SDS011;10359;53.596;22.520;2022-08-19T06:04:53;13.17;;;9.00;;
20399;SDS011;10359;53.596;22.520;2022-08-19T06:07:22;12.50;;;10.50;;
20399;SDS011;10359;53.596;22.520;2022-08-19T06:09:52;10.00;;;9.00;;
20399;SDS011;10359;53.596;22.520;2022-08-19T06:12:26;13.43;;;9.27;;
20399;SDS011;10359;53.596;22.520;2022-08-19T06:15:00;12.87;;;9.40;;
20399;SDS011;10359;53.596;22.520;2022-08-19T06:17:32;10.70;;;9.47;;
20399;SDS011;10359;53.596;22.520;2022-08-19T06:20:02;9.80;;;8.90;;
20399;SDS011;10359;53.596;22.520;2022-08-19T06:22:31;10.47;;;9.00;;
20399;SDS011;10359;53.596;22.520;2022-08-19T06:25:06;12.30;;;8.63;;
20399;SDS011;10359;53.596;22.520;2022-08-19T06:27:36;10.07;;;9.10;;
20399;SDS011;10359;53.596;22.520;2022-08-19T06:30:26;12.47;;;9.00;;
20399;SDS011;10359;53.596;22.520;2022-08-19T06:32:56;10.80;;;9.33;;
20399;SDS011;10359;53.596;22.520;2022-08-19T06:35:25;10.17;;;9.10;;
20399;SDS011;10359;53.596;22.520;2022-08-19T06:37:56;9.63;;;8.33;;
20399;SDS011;10359;53.596;22.520;2022-08-19T06:40:26;11.40;;;9.20;;
20399;SDS011;10359;53.596;22.520;2022-08-19T06:42:55;10.50;;;9.17;;
20399;SDS011;10359;53.596;22.520;2022-08-19T06:45:29;13.17;;;9.07;;
20399;SDS011;10359;53.596;22.520;2022-08-19T06:48:04;12.53;;;8.47;;
20399;SDS011;10359;53.596;22.520;2022-08-19T06:50:33;9.47;;;8.57;;
20399;SDS011;10359;53.596;22.520;2022-08-19T06:53:06;9.83;;;8.80;;
20399;SDS011;10359;53.596;22.520;2022-08-19T06:55:35;9.97;;;8.70;;
20399;SDS011;10359;53.596;22.520;2022-08-19T06:58:04;8.40;;;7.60;;
20399;SDS011;10359;53.596;22.520;2022-08-19T07:00:35;12.37;;;8.40;;
20399;SDS011;10359;53.596;22.520;2022-08-19T07:03:05;8.60;;;7.80;;
20399;SDS011;10359;53.596;22.520;2022-08-19T07:05:39;9.37;;;7.23;;
20399;SDS011;10359;53.596;22.520;2022-08-19T07:08:11;15.37;;;8.07;;
20399;SDS011;10359;53.596;22.520;2022-08-19T07:10:42;9.77;;;7.30;;
20399;SDS011;10359;53.596;22.520;2022-08-19T07:13:12;10.47;;;7.40;;
20399;SDS011;10359;53.596;22.520;2022-08-19T07:15:43;10.03;;;7.67;;
20399;SDS011;10359;53.596;22.520;2022-08-19T07:18:13;10.33;;;7.93;;
20399;SDS011;10359;53.596;22.520;2022-08-19T07:20:42;9.90;;;7.35;;
20399;SDS011;10359;53.596;22.520;2022-08-19T07:23:12;10.57;;;7.53;;
20399;SDS011;10359;53.596;22.520;2022-08-19T07:25:41;8.70;;;7.50;;
20399;SDS011;10359;53.596;22.520;2022-08-19T07:28:18;8.13;;;7.00;;
20399;SDS011;10359;53.596;22.520;2022-08-19T07:30:52;7.73;;;7.03;;
20399;SDS011;10359;53.596;22.520;2022-08-19T07:33:21;9.67;;;7.33;;
20399;SDS011;10359;53.596;22.520;2022-08-19T07:35:53;12.37;;;7.60;;
20399;SDS011;10359;53.596;22.520;2022-08-19T07:38:22;7.63;;;6.88;;
20399;SDS011;10359;53.596;22.520;2022-08-19T07:40:52;8.55;;;7.05;;
20399;SDS011;10359;53.596;22.520;2022-08-19T07:43:21;10.13;;;7.35;;
20399;SDS011;10359;53.596;22.520;2022-08-19T07:46:02;8.65;;;6.95;;
20399;SDS011;10359;53.596;22.520;2022-08-19T07:48:31;7.50;;;6.80;;
20399;SDS011;10359;53.596;22.520;2022-08-19T07:51:03;12.82;;;6.80;;
20399;SDS011;10359;53.596;22.520;2022-08-19T07:53:35;9.38;;;6.95;;
20399;SDS011;10359;53.596;22.520;2022-08-19T07:56:05;8.55;;;6.97;;
20399;SDS011;10359;53.596;22.520;2022-08-19T07:58:37;9.85;;;7.15;;
20399;SDS011;10359;53.596;22.520;2022-08-19T08:01:11;7.50;;;6.80;;
20399;SDS011;10359;53.596;22.520;2022-08-19T08:03:42;10.23;;;6.75;;
20399;SDS011;10359;53.596;22.520;2022-08-19T08:06:28;11.77;;;6.82;;
20399;SDS011;10359;53.596;22.520;2022-08-19T08:09:30;8.18;;;6.47;;
20399;SDS011;10359;53.596;22.520;2022-08-19T08:12:06;9.35;;;6.60;;
20399;SDS011;10359;53.596;22.520;2022-08-19T08:14:58;8.57;;;6.10;;
20399;SDS011;10359;53.596;22.520;2022-08-19T08:17:35;10.43;;;6.05;;
20399;SDS011;10359;53.596;22.520;2022-08-19T08:20:15;6.55;;;5.70;;
20399;SDS011;10359;53.596;22.520;2022-08-19T08:22:45;10.95;;;6.55;;
20399;SDS011;10359;53.596;22.520;2022-08-19T08:25:41;8.85;;;6.60;;
20399;SDS011;10359;53.596;22.520;2022-08-19T08:28:14;7.03;;;6.28;;
20399;SDS011;10359;53.596;22.520;2022-08-19T08:30:44;8.82;;;6.03;;
20399;SDS011;10359;53.596;22.520;2022-08-19T08:33:18;6.63;;;5.97;;
20399;SDS011;10359;53.596;22.520;2022-08-19T08:35:59;9.27;;;5.80;;
20399;SDS011;10359;53.596;22.520;2022-08-19T08:38:30;7.38;;;5.72;;
20399;SDS011;10359;53.596;22.520;2022-08-19T08:41:11;6.88;;;5.40;;
20399;SDS011;10359;53.596;22.520;2022-08-19T08:43:48;10.23;;;5.43;;
20399;SDS011;10359;53.596;22.520;2022-08-19T08:46:21;8.60;;;5.28;;
20399;SDS011;10359;53.596;22.520;2022-08-19T08:48:59;6.18;;;4.85;;
20399;SDS011;10359;53.596;22.520;2022-08-19T08:51:39;12.18;;;5.13;;
20399;SDS011;10359;53.596;22.520;2022-08-19T08:54:14;7.80;;;5.22;;
20399;SDS011;10359;53.596;22.520;2022-08-19T08:56:46;7.90;;;5.45;;
20399;SDS011;10359;53.596;22.520;2022-08-19T08:59:19;5.45;;;4.90;;
20399;SDS011;10359;53.596;22.520;2022-08-19T09:01:52;8.85;;;5.40;;
20399;SDS011;10359;53.596;22.520;2022-08-19T09:04:23;6.93;;;5.10;;
20399;SDS011;10359;53.596;22.520;2022-08-19T09:06:55;7.28;;;5.18;;
20399;SDS011;10359;53.596;22.520;2022-08-19T09:09:52;8.07;;;5.18;;
20399;SDS011;10359;53.596;22.520;2022-08-19T09:12:32;7.00;;;4.97;;
20399;SDS011;10359;53.596;22.520;2022-08-19T09:15:13;8.35;;;5.22;;
20399;SDS011;10359;53.596;22.520;2022-08-19T09:17:54;11.00;;;5.18;;
20399;SDS011;10359;53.596;22.520;2022-08-19T09:20:34;10.65;;;5.25;;
20399;SDS011;10359;53.596;22.520;2022-08-19T09:23:08;10.57;;;5.03;;
20399;SDS011;10359;53.596;22.520;2022-08-19T09:25:37;8.23;;;4.97;;
20399;SDS011;10359;53.596;22.520;2022-08-19T09:28:08;9.32;;;4.93;;
20399;SDS011;10359;53.596;22.520;2022-08-19T09:30:48;7.50;;;4.88;;
20399;SDS011;10359;53.596;22.520;2022-08-19T09:33:18;7.30;;;4.72;;
20399;SDS011;10359;53.596;22.520;2022-08-19T09:35:49;5.70;;;4.45;;
20399;SDS011;10359;53.596;22.520;2022-08-19T09:38:19;7.40;;;4.72;;
20399;SDS011;10359;53.596;22.520;2022-08-19T09:40:48;8.70;;;5.00;;
20399;SDS011;10359;53.596;22.520;2022-08-19T09:43:17;5.95;;;4.78;;
20399;SDS011;10359;53.596;22.520;2022-08-19T09:45:59;6.13;;;4.60;;
20399;SDS011;10359;53.596;22.520;2022-08-19T09:48:28;6.45;;;4.53;;
20399;SDS011;10359;53.596;22.520;2022-08-19T09:51:03;6.45;;;5.30;;
20399;SDS011;10359;53.596;22.520;2022-08-19T09:53:37;6.50;;;4.40;;
20399;SDS011;10359;53.596;22.520;2022-08-19T09:56:08;9.05;;;5.10;;
20399;SDS011;10359;53.596;22.520;2022-08-19T09:58:39;5.53;;;4.95;;
20399;SDS011;10359;53.596;22.520;2022-08-19T10:01:08;9.20;;;4.82;;
20399;SDS011;10359;53.596;22.520;2022-08-19T10:03:43;6.30;;;4.38;;
20399;SDS011;10359;53.596;22.520;2022-08-19T10:06:17;6.53;;;4.97;;
20399;SDS011;10359;53.596;22.520;2022-08-19T10:09:07;7.97;;;4.72;;
20399;SDS011;10359;53.596;22.520;2022-08-19T10:11:39;4.57;;;4.03;;
20399;SDS011;10359;53.596;22.520;2022-08-19T10:14:19;10.32;;;4.55;;
20399;SDS011;10359;53.596;22.520;2022-08-19T10:16:50;8.93;;;4.47;;
20399;SDS011;10359;53.596;22.520;2022-08-19T10:19:19;6.43;;;4.32;;
20399;SDS011;10359;53.596;22.520;2022-08-19T10:21:53;6.18;;;4.65;;
20399;SDS011;10359;53.596;22.520;2022-08-19T10:24:26;4.93;;;3.97;;
20399;SDS011;10359;53.596;22.520;2022-08-19T10:26:56;7.25;;;4.60;;
20399;SDS011;10359;53.596;22.520;2022-08-19T10:29:26;6.78;;;4.13;;
20399;SDS011;10359;53.596;22.520;2022-08-19T10:31:58;4.68;;;3.97;;
20399;SDS011;10359;53.596;22.520;2022-08-19T10:34:29;8.63;;;4.47;;
20399;SDS011;10359;53.596;22.520;2022-08-19T10:37:00;7.43;;;4.50;;
20399;SDS011;10359;53.596;22.520;2022-08-19T10:39:36;7.80;;;4.78;;
20399;SDS011;10359;53.596;22.520;2022-08-19T10:42:09;7.65;;;4.22;;
20399;SDS011;10359;53.596;22.520;2022-08-19T10:44:40;5.28;;;4.68;;
20399;SDS011;10359;53.596;22.520;2022-08-19T10:47:09;7.45;;;4.10;;
20399;SDS011;10359;53.596;22.520;2022-08-19T10:49:50;6.13;;;4.47;;
20399;SDS011;10359;53.596;22.520;2022-08-19T10:52:39;5.10;;;4.60;;
20399;SDS011;10359;53.596;22.520;2022-08-19T10:55:16;6.80;;;4.30;;
20399;SDS011;10359;53.596;22.520;2022-08-19T10:58:06;5.65;;;4.10;;
20399;SDS011;10359;53.596;22.520;2022-08-19T11:00:39;11.43;;;4.50;;
20399;SDS011;10359;53.596;22.520;2022-08-19T11:03:09;8.50;;;4.68;;
20399;SDS011;10359;53.596;22.520;2022-08-19T11:05:38;6.50;;;4.53;;
20399;SDS011;10359;53.596;22.520;2022-08-19T11:08:09;4.40;;;3.80;;
20399;SDS011;10359;53.596;22.520;2022-08-19T11:10:49;5.82;;;4.53;;
20399;SDS011;10359;53.596;22.520;2022-08-19T11:13:28;8.20;;;4.18;;
20399;SDS011;10359;53.596;22.520;2022-08-19T11:15:58;6.53;;;4.53;;
20399;SDS011;10359;53.596;22.520;2022-08-19T11:18:34;9.35;;;4.13;;
20399;SDS011;10359;53.596;22.520;2022-08-19T11:21:08;7.03;;;4.00;;
20399;SDS011;10359;53.596;22.520;2022-08-19T11:23:40;5.38;;;4.00;;
20399;SDS011;10359;53.596;22.520;2022-08-19T11:26:09;7.93;;;4.20;;
20399;SDS011;10359;53.596;22.520;2022-08-19T11:28:39;7.57;;;4.60;;
20399;SDS011;10359;53.596;22.520;2022-08-19T11:31:11;9.20;;;4.68;;
20399;SDS011;10359;53.596;22.520;2022-08-19T11:33:44;6.57;;;4.50;;
20399;SDS011;10359;53.596;22.520;2022-08-19T11:36:13;5.35;;;4.10;;
20399;SDS011;10359;53.596;22.520;2022-08-19T11:38:45;6.50;;;4.15;;
20399;SDS011;10359;53.596;22.520;2022-08-19T11:41:15;5.35;;;4.18;;
20399;SDS011;10359;53.596;22.520;2022-08-19T11:43:48;9.85;;;4.65;;
20399;SDS011;10359;53.596;22.520;2022-08-19T11:46:19;7.18;;;4.47;;
20399;SDS011;10359;53.596;22.520;2022-08-19T11:48:49;4.78;;;4.22;;
20399;SDS011;10359;53.596;22.520;2022-08-19T11:51:19;6.80;;;4.05;;
20399;SDS011;10359;53.596;22.520;2022-08-19T11:53:53;7.90;;;4.05;;
20399;SDS011;10359;53.596;22.520;2022-08-19T11:56:23;8.73;;;4.68;;
20399;SDS011;10359;53.596;22.520;2022-08-19T11:58:53;6.07;;;4.43;;
20399;SDS011;10359;53.596;22.520;2022-08-19T12:01:24;5.20;;;4.32;;
20399;SDS011;10359;53.596;22.520;2022-08-19T12:03:54;5.53;;;4.25;;
20399;SDS011;10359;53.596;22.520;2022-08-19T12:06:26;8.73;;;3.92;;
20399;SDS011;10359;53.596;22.520;2022-08-19T12:09:02;5.90;;;4.47;;
20399;SDS011;10359;53.596;22.520;2022-08-19T12:11:33;6.60;;;4.00;;
20399;SDS011;10359;53.596;22.520;2022-08-19T12:14:03;10.18;;;3.92;;
20399;SDS011;10359;53.596;22.520;2022-08-19T12:16:33;5.50;;;3.97;;
20399;SDS011;10359;53.596;22.520;2022-08-19T12:19:10;7.80;;;4.28;;
20399;SDS011;10359;53.596;22.520;2022-08-19T12:21:47;8.00;;;4.18;;
20399;SDS011;10359;53.596;22.520;2022-08-19T12:24:19;6.70;;;4.30;;
20399;SDS011;10359;53.596;22.520;2022-08-19T12:26:50;6.75;;;4.05;;
20399;SDS011;10359;53.596;22.520;2022-08-19T12:29:26;4.75;;;3.65;;
20399;SDS011;10359;53.596;22.520;2022-08-19T12:31:56;6.32;;;3.92;;
20399;SDS011;10359;53.596;22.520;2022-08-19T12:34:29;6.53;;;3.85;;
20399;SDS011;10359;53.596;22.520;2022-08-19T12:37:01;5.35;;;3.97;;
20399;SDS011;10359;53.596;22.520;2022-08-19T12:39:35;6.13;;;3.53;;
20399;SDS011;10359;53.596;22.520;2022-08-19T12:42:05;5.28;;;3.90;;
20399;SDS011;10359;53.596;22.520;2022-08-19T12:44:35;5.70;;;3.75;;
20399;SDS011;10359;53.596;22.520;2022-08-19T12:47:08;8.88;;;3.92;;
20399;SDS011;10359;53.596;22.520;2022-08-19T12:49:39;7.45;;;3.83;;
20399;SDS011;10359;53.596;22.520;2022-08-19T12:52:20;7.38;;;4.18;;
20399;SDS011;10359;53.596;22.520;2022-08-19T12:54:51;7.57;;;4.00;;
20399;SDS011;10359;53.596;22.520;2022-08-19T12:57:22;8.25;;;3.70;;
20399;SDS011;10359;53.596;22.520;2022-08-19T12:59:59;7.05;;;4.05;;
20399;SDS011;10359;53.596;22.520;2022-08-19T13:02:31;4.63;;;3.95;;
20399;SDS011;10359;53.596;22.520;2022-08-19T13:17:20;4.97;;;4.03;;
20399;SDS011;10359;53.596;22.520;2022-08-19T13:19:49;6.72;;;3.67;;
20399;SDS011;10359;53.596;22.520;2022-08-19T13:22:18;6.55;;;3.67;;
20399;SDS011;10359;53.596;22.520;2022-08-19T13:24:48;4.97;;;3.70;;
20399;SDS011;10359;53.596;22.520;2022-08-19T13:27:17;4.65;;;3.50;;
20399;SDS011;10359;53.596;22.520;2022-08-19T13:29:46;5.18;;;3.70;;
20399;SDS011;10359;53.596;22.520;2022-08-19T13:32:34;6.00;;;3.65;;
20399;SDS011;10359;53.596;22.520;2022-08-19T13:35:20;7.40;;;3.50;;
20399;SDS011;10359;53.596;22.520;2022-08-19T13:37:49;5.65;;;3.45;;
20399;SDS011;10359;53.596;22.520;2022-08-19T13:40:20;6.63;;;3.42;;
20399;SDS011;10359;53.596;22.520;2022-08-19T13:42:53;5.57;;;3.55;;
20399;SDS011;10359;53.596;22.520;2022-08-19T13:45:23;7.40;;;3.60;;
20399;SDS011;10359;53.596;22.520;2022-08-19T13:47:56;7.78;;;3.75;;
20399;SDS011;10359;53.596;22.520;2022-08-19T13:50:27;10.18;;;3.47;;
20399;SDS011;10359;53.596;22.520;2022-08-19T13:52:58;7.70;;;3.45;;
20399;SDS011;10359;53.596;22.520;2022-08-19T13:55:27;7.35;;;3.38;;
20399;SDS011;10359;53.596;22.520;2022-08-19T13:57:57;8.65;;;3.13;;
20399;SDS011;10359;53.596;22.520;2022-08-19T14:00:28;7.47;;;3.42;;
20399;SDS011;10359;53.596;22.520;2022-08-19T14:03:01;5.43;;;3.20;;
20399;SDS011;10359;53.596;22.520;2022-08-19T14:05:35;8.55;;;4.03;;
20399;SDS011;10359;53.596;22.520;2022-08-19T14:08:04;4.82;;;3.38;;
20399;SDS011;10359;53.596;22.520;2022-08-19T14:10:34;6.20;;;3.53;;
20399;SDS011;10359;53.596;22.520;2022-08-19T14:13:03;7.47;;;4.22;;
20399;SDS011;10359;53.596;22.520;2022-08-19T14:15:32;16.25;;;9.50;;
20399;SDS011;10359;53.596;22.520;2022-08-19T14:18:02;15.95;;;8.82;;
20399;SDS011;10359;53.596;22.520;2022-08-19T14:20:33;34.83;;;18.55;;
20399;SDS011;10359;53.596;22.520;2022-08-19T14:23:02;34.70;;;19.55;;
20399;SDS011;10359;53.596;22.520;2022-08-19T14:25:42;16.38;;;7.28;;
20399;SDS011;10359;53.596;22.520;2022-08-19T14:28:11;40.17;;;19.27;;
20399;SDS011;10359;53.596;22.520;2022-08-19T14:30:40;19.73;;;10.38;;
20399;SDS011;10359;53.596;22.520;2022-08-19T14:33:13;14.00;;;6.45;;
20399;SDS011;10359;53.596;22.520;2022-08-19T14:35:42;8.80;;;4.53;;
20399;SDS011;10359;53.596;22.520;2022-08-19T14:38:14;15.77;;;7.00;;
20399;SDS011;10359;53.596;22.520;2022-08-19T14:41:05;14.30;;;6.47;;
20399;SDS011;10359;53.596;22.520;2022-08-19T14:43:35;11.38;;;5.63;;
20399;SDS011;10359;53.596;22.520;2022-08-19T14:46:05;7.63;;;4.00;;
20399;SDS011;10359;53.596;22.520;2022-08-19T14:48:37;13.02;;;5.72;;
20399;SDS011;10359;53.596;22.520;2022-08-19T14:51:07;4.57;;;3.33;;
20399;SDS011;10359;53.596;22.520;2022-08-19T14:53:36;9.48;;;3.55;;
20399;SDS011;10359;53.596;22.520;2022-08-19T14:56:09;12.13;;;4.10;;
20399;SDS011;10359;53.596;22.520;2022-08-19T14:58:38;7.78;;;3.67;;
20399;SDS011;10359;53.596;22.520;2022-08-19T15:01:09;5.90;;;3.10;;
20399;SDS011;10359;53.596;22.520;2022-08-19T15:03:40;7.93;;;3.60;;
20399;SDS011;10359;53.596;22.520;2022-08-19T15:06:18;6.20;;;2.90;;
20399;SDS011;10359;53.596;22.520;2022-08-19T15:08:47;6.47;;;3.85;;
20399;SDS011;10359;53.596;22.520;2022-08-19T15:11:18;7.75;;;3.72;;